createdAt,value
2023-05-16T00:00:58.721Z,12.20
2023-05-16T00:03:25.709Z,12.20
2023-05-16T00:05:52.414Z,12.20
2023-05-16T00:08:19.038Z,12.10
2023-05-16T00:10:45.700Z,12.10
2023-05-16T00:13:13.579Z,11.90
2023-05-16T00:15:40.202Z,12.10
2023-05-16T00:18:07.175Z,12.10
2023-05-16T00:20:34.614Z,12.10
2023-05-16T00:23:01.369Z,14.30
2023-05-16T00:25:28.636Z,10.60
2023-05-16T00:27:55.355Z,9.30
2023-05-16T00:30:22.832Z,11.80
2023-05-16T00:32:49.574Z,11.90
2023-05-16T00:35:16.226Z,11.70
2023-05-16T00:37:42.827Z,11.80
2023-05-16T00:40:09.862Z,11.80
2023-05-16T00:42:36.532Z,11.70
2023-05-16T00:45:04.006Z,11.70
2023-05-16T00:47:30.875Z,11.70
2023-05-16T00:49:57.677Z,11.70
2023-05-16T00:52:24.448Z,11.70
2023-05-16T00:54:51.265Z,11.80
2023-05-16T00:59:46.300Z,11.70
2023-05-16T01:02:13.236Z,11.60
2023-05-16T01:09:35.847Z,11.60
2023-05-16T01:12:08.883Z,11.50
2023-05-16T01:17:07.231Z,11.50
2023-05-16T01:19:36.903Z,11.50
2023-05-16T01:22:13.616Z,11.40
2023-05-16T01:29:35.214Z,11.40
2023-05-16T01:32:01.902Z,11.40
2023-05-16T01:34:28.444Z,11.30
2023-05-16T01:37:07.040Z,11.30
2023-05-16T01:39:37.434Z,11.30
2023-05-16T01:44:49.622Z,11.40
2023-05-16T01:47:17.458Z,11.50
2023-05-16T01:49:54.296Z,11.50
2023-05-16T01:52:32.530Z,11.40
2023-05-16T01:55:00.627Z,11.40
2023-05-16T01:57:28.066Z,11.30
2023-05-16T01:59:54.698Z,11.30
2023-05-16T02:02:21.329Z,11.30
2023-05-16T02:04:47.922Z,11.30
2023-05-16T02:07:15.260Z,11.30
2023-05-16T02:09:41.825Z,11.30
2023-05-16T02:12:08.581Z,11.30
2023-05-16T02:14:35.212Z,12.30
2023-05-16T02:17:01.800Z,11.30
2023-05-16T02:19:28.658Z,11.30
2023-05-16T02:21:55.311Z,11.20
2023-05-16T02:24:21.998Z,11.20
2023-05-16T02:26:48.559Z,11.10
2023-05-16T02:29:16.576Z,11.20
2023-05-16T02:31:43.340Z,11.10
2023-05-16T02:34:11.024Z,11.20
2023-05-16T02:36:37.722Z,11.10
2023-05-16T02:39:04.320Z,11.10
2023-05-16T02:41:31.722Z,11.00
2023-05-16T02:43:58.577Z,11.00
2023-05-16T02:46:33.638Z,11.00
2023-05-16T02:49:00.547Z,11.00
2023-05-16T02:51:27.691Z,11.00
2023-05-16T02:53:54.357Z,11.60
2023-05-16T02:56:21.843Z,11.00
2023-05-16T02:58:49.370Z,11.10
2023-05-16T03:01:16.720Z,11.10
2023-05-16T03:03:43.418Z,11.00
2023-05-16T03:06:10.212Z,11.00
2023-05-16T03:08:36.954Z,11.00
2023-05-16T03:11:03.652Z,11.00
2023-05-16T03:13:30.341Z,11.00
2023-05-16T03:15:56.938Z,10.90
2023-05-16T03:18:23.493Z,10.80
2023-05-16T03:20:53.342Z,10.80
2023-05-16T03:23:20.454Z,10.80
2023-05-16T03:28:15.740Z,10.90
2023-05-16T03:30:42.397Z,10.90
2023-05-16T03:33:09.235Z,10.90
2023-05-16T03:35:36.385Z,10.90
2023-05-16T03:38:03.594Z,10.90
2023-05-16T03:40:30.335Z,10.90
2023-05-16T03:42:56.936Z,11.10
2023-05-16T03:45:23.496Z,11.00
2023-05-16T03:47:50.876Z,11.00
2023-05-16T03:50:17.749Z,11.00
2023-05-16T03:52:44.493Z,11.00
2023-05-16T03:55:15.982Z,11.00
2023-05-16T03:57:42.657Z,11.00
2023-05-16T04:00:12.169Z,11.10
2023-05-16T04:02:42.888Z,11.10
2023-05-16T04:05:10.492Z,12.80
2023-05-16T04:07:37.569Z,11.20
2023-05-16T04:10:04.694Z,11.20
2023-05-16T04:12:31.633Z,11.20
2023-05-16T04:14:58.263Z,11.30
2023-05-16T04:17:24.957Z,11.30
2023-05-16T04:19:51.607Z,11.30
2023-05-16T04:22:18.204Z,11.40
2023-05-16T04:24:44.744Z,11.40
2023-05-16T04:27:12.187Z,11.50
2023-05-16T04:29:38.773Z,11.50
2023-05-16T04:32:07.491Z,11.50
2023-05-16T04:34:39.883Z,11.60
2023-05-16T04:37:07.654Z,11.60
2023-05-16T04:39:34.718Z,11.60
2023-05-16T04:42:01.731Z,11.60
2023-05-16T04:44:28.433Z,11.70
2023-05-16T04:46:55.663Z,11.70
2023-05-16T04:49:22.465Z,11.70
2023-05-16T04:51:49.074Z,11.80
2023-05-16T04:54:15.729Z,11.90
2023-05-16T04:56:42.461Z,11.90
2023-05-16T04:59:09.078Z,11.90
2023-05-16T05:01:35.749Z,11.90
2023-05-16T05:04:02.361Z,12.00
2023-05-16T05:06:28.919Z,12.00
2023-05-16T05:08:55.713Z,12.10
2023-05-16T05:11:23.176Z,12.10
2023-05-16T05:13:51.978Z,12.10
2023-05-16T05:16:19.452Z,12.30
2023-05-16T05:18:46.201Z,13.00
2023-05-16T05:21:12.937Z,12.40
2023-05-16T05:23:39.871Z,12.40
2023-05-16T05:26:06.673Z,12.50
2023-05-16T05:28:33.247Z,12.50
2023-05-16T05:30:59.785Z,12.60
2023-05-16T05:33:27.139Z,12.60
2023-05-16T05:35:54.168Z,12.70
2023-05-16T05:38:20.920Z,12.70
2023-05-16T05:40:47.933Z,12.80
2023-05-16T05:43:14.481Z,12.90
2023-05-16T05:45:41.611Z,13.00
2023-05-16T05:48:08.482Z,13.10
2023-05-16T05:50:35.084Z,13.10
2023-05-16T05:53:01.640Z,13.20
2023-05-16T05:55:28.500Z,13.30
2023-05-16T05:57:55.416Z,13.30
2023-05-16T06:00:22.111Z,13.40
2023-05-16T06:02:48.793Z,13.50
2023-05-16T06:05:15.527Z,13.70
2023-05-16T06:07:42.406Z,13.90
2023-05-16T06:10:09.211Z,14.00
2023-05-16T06:12:35.821Z,14.20
2023-05-16T06:15:02.586Z,14.40
2023-05-16T06:17:29.196Z,14.70
2023-05-16T06:19:55.903Z,14.90
2023-05-16T06:22:22.443Z,15.40
2023-05-16T06:24:49.030Z,15.70
2023-05-16T06:27:15.610Z,16.30
2023-05-16T06:29:42.169Z,16.30
2023-05-16T06:32:10.315Z,16.60
2023-05-16T06:34:39.404Z,17.00
2023-05-16T06:37:06.134Z,16.20
2023-05-16T06:39:32.814Z,17.30
2023-05-16T06:41:59.413Z,17.50
2023-05-16T06:44:25.988Z,17.70
2023-05-16T06:46:53.015Z,17.90
2023-05-16T06:49:19.619Z,18.10
2023-05-16T06:51:46.635Z,18.30
2023-05-16T06:54:13.223Z,18.50
2023-05-16T06:56:39.814Z,19.10
2023-05-16T06:59:06.719Z,19.70
2023-05-16T07:01:33.326Z,20.10
2023-05-16T07:03:59.999Z,17.70
2023-05-16T07:06:26.828Z,20.40
2023-05-16T07:08:53.907Z,20.90
2023-05-16T07:11:21.411Z,21.20
2023-05-16T07:13:48.037Z,21.90
2023-05-16T07:16:14.751Z,22.30
2023-05-16T07:18:41.425Z,22.60
2023-05-16T07:21:08.241Z,22.90
2023-05-16T07:23:34.959Z,22.90
2023-05-16T07:26:01.592Z,22.90
2023-05-16T07:28:28.190Z,22.50
2023-05-16T07:45:42.248Z,22.60
2023-05-16T07:48:08.887Z,22.90
2023-05-16T07:53:02.720Z,23.70
2023-05-16T07:55:29.533Z,23.90
2023-05-16T07:57:56.601Z,24.20
2023-05-16T08:00:23.289Z,24.40
2023-05-16T08:02:50.138Z,24.90
2023-05-16T08:05:16.855Z,24.80
2023-05-16T08:07:44.605Z,25.40
2023-05-16T08:10:13.339Z,25.90
2023-05-16T08:12:40.484Z,26.10
2023-05-16T08:15:07.606Z,26.80
2023-05-16T08:17:34.819Z,27.60
2023-05-16T08:20:01.869Z,28.40
2023-05-16T08:22:28.518Z,28.70
2023-05-16T08:24:58.134Z,28.50
2023-05-16T08:27:24.760Z,28.40
2023-05-16T08:29:51.383Z,28.20
2023-05-16T08:32:17.952Z,27.80
2023-05-16T08:34:44.641Z,28.10
2023-05-16T08:37:11.344Z,28.40
2023-05-16T08:39:40.876Z,28.80
2023-05-16T08:42:07.848Z,29.00
2023-05-16T08:44:34.598Z,28.20
2023-05-16T08:47:05.567Z,28.10
2023-05-16T08:49:34.350Z,28.20
2023-05-16T08:52:02.241Z,28.50
2023-05-16T08:54:29.084Z,28.70
2023-05-16T08:56:56.112Z,29.80
2023-05-16T08:59:23.072Z,30.60
2023-05-16T09:01:49.736Z,31.20
2023-05-16T09:04:16.465Z,31.20
2023-05-16T09:06:43.311Z,31.50
2023-05-16T09:09:12.921Z,31.50
2023-05-16T09:11:39.697Z,31.60
2023-05-16T09:14:06.443Z,32.10
2023-05-16T09:16:34.543Z,32.30
2023-05-16T09:19:02.126Z,32.10
2023-05-16T09:21:29.773Z,31.70
2023-05-16T09:23:56.564Z,31.20
2023-05-16T09:26:23.443Z,29.80
2023-05-16T09:28:53.276Z,28.30
2023-05-16T09:31:21.001Z,28.80
2023-05-16T09:33:48.955Z,29.40
2023-05-16T09:36:15.804Z,29.80
2023-05-16T09:38:42.423Z,30.80
2023-05-16T09:41:10.153Z,30.70
2023-05-16T09:43:40.306Z,31.10
2023-05-16T09:46:08.961Z,32.40
2023-05-16T09:48:36.298Z,32.60
2023-05-16T09:51:05.706Z,32.90
2023-05-16T09:53:33.232Z,32.20
2023-05-16T09:56:04.200Z,32.00
2023-05-16T09:58:31.813Z,31.40
2023-05-16T10:00:59.088Z,31.50
2023-05-16T10:03:27.343Z,30.50
2023-05-16T10:05:54.418Z,29.80
2023-05-16T10:08:25.343Z,29.60
2023-05-16T10:10:53.259Z,30.10
2023-05-16T10:13:23.875Z,30.60
2023-05-16T10:15:51.669Z,30.90
2023-05-16T10:18:19.721Z,30.90
2023-05-16T10:20:49.176Z,30.50
2023-05-16T10:23:17.856Z,30.80
2023-05-16T10:25:44.825Z,30.70
2023-05-16T10:28:11.700Z,31.20
2023-05-16T10:30:40.594Z,31.20
2023-05-16T10:33:07.515Z,31.60
2023-05-16T10:35:34.676Z,31.80
2023-05-16T10:38:01.588Z,32.50
2023-05-16T10:40:29.029Z,31.30
2023-05-16T10:43:02.907Z,32.20
2023-05-16T10:45:29.973Z,32.30
2023-05-16T10:47:58.454Z,32.40
2023-05-16T10:50:31.623Z,32.20
2023-05-16T10:53:10.709Z,31.50
2023-05-16T10:55:38.792Z,32.30
2023-05-16T10:58:05.388Z,30.90
2023-05-16T11:00:32.201Z,30.00
2023-05-16T11:03:06.238Z,28.90
2023-05-16T11:05:33.526Z,27.70
2023-05-16T11:08:05.194Z,27.50
2023-05-16T11:10:32.702Z,27.30
2023-05-16T11:13:07.708Z,26.80
2023-05-16T11:15:34.741Z,26.40
2023-05-16T11:18:05.232Z,26.10
2023-05-16T11:20:34.769Z,25.80
2023-05-16T11:23:22.964Z,25.60
2023-05-16T11:25:54.285Z,25.90
2023-05-16T11:28:21.481Z,26.40
2023-05-16T11:30:49.674Z,26.40
2023-05-16T11:33:16.694Z,24.80
2023-05-16T11:35:43.536Z,26.50
2023-05-16T11:38:16.572Z,26.90
2023-05-16T11:40:44.541Z,27.50
2023-05-16T11:43:12.376Z,28.10
2023-05-16T11:45:39.018Z,27.60
2023-05-16T11:48:06.402Z,26.90
2023-05-16T11:53:01.621Z,24.10
2023-05-16T12:00:35.621Z,24.80
2023-05-16T12:08:02.573Z,25.30
2023-05-16T12:10:31.736Z,25.30
2023-05-16T12:12:58.452Z,25.30
2023-05-16T12:15:25.354Z,24.80
2023-05-16T12:22:46.428Z,24.60
2023-05-16T12:25:26.788Z,25.20
2023-05-16T12:27:54.697Z,26.00
2023-05-16T12:30:25.482Z,26.00
2023-05-16T12:32:52.976Z,26.10
2023-05-16T12:35:19.724Z,25.70
2023-05-16T12:37:46.564Z,25.30
2023-05-16T12:40:13.432Z,25.40
2023-05-16T12:42:40.108Z,24.90
2023-05-16T12:45:14.339Z,25.00
2023-05-16T12:47:40.988Z,25.90
2023-05-16T12:50:12.792Z,25.80
2023-05-16T12:52:46.480Z,25.10
2023-05-16T12:55:13.226Z,24.70
2023-05-16T12:57:42.130Z,24.50
2023-05-16T13:00:09.838Z,24.40
2023-05-16T13:02:36.624Z,24.10
2023-05-16T13:05:03.986Z,24.10
2023-05-16T13:07:30.956Z,24.30
2023-05-16T13:09:57.556Z,24.10
2023-05-16T13:12:27.083Z,23.80
2023-05-16T13:14:54.713Z,23.90
2023-05-16T13:17:21.404Z,23.80
2023-05-16T13:19:49.030Z,23.80
2023-05-16T13:22:16.197Z,23.60
2023-05-16T13:24:42.786Z,24.00
2023-05-16T13:27:09.369Z,25.00
2023-05-16T13:29:36.108Z,25.40
2023-05-16T13:32:02.767Z,25.90
2023-05-16T13:34:29.496Z,26.30
2023-05-16T13:36:56.127Z,26.80
2023-05-16T13:39:22.933Z,27.10
2023-05-16T13:41:49.717Z,26.60
2023-05-16T13:44:16.633Z,26.30
2023-05-16T13:46:43.419Z,24.50
2023-05-16T13:49:10.031Z,26.30
2023-05-16T13:51:37.114Z,26.80
2023-05-16T13:54:03.770Z,26.00
2023-05-16T13:56:30.447Z,25.30
2023-05-16T13:59:02.174Z,24.70
2023-05-16T14:01:30.700Z,24.50
2023-05-16T14:03:57.469Z,23.80
2023-05-16T14:06:24.216Z,23.30
2023-05-16T14:08:50.805Z,22.90
2023-05-16T14:11:19.590Z,22.70
2023-05-16T14:13:46.601Z,22.60
2023-05-16T14:18:40.332Z,23.00
2023-05-16T14:21:07.132Z,22.90
2023-05-16T14:23:33.714Z,22.50
2023-05-16T14:26:01.004Z,22.50
2023-05-16T14:28:27.614Z,22.60
2023-05-16T14:30:54.761Z,22.70
2023-05-16T14:33:21.457Z,22.50
2023-05-16T14:38:16.769Z,21.10
2023-05-16T14:43:10.761Z,21.20
2023-05-16T14:45:38.281Z,21.20
2023-05-16T14:48:08.361Z,21.10
2023-05-16T14:50:35.303Z,20.90
2023-05-16T14:53:01.957Z,20.70
2023-05-16T14:55:29.110Z,20.50
2023-05-16T14:57:59.654Z,20.40
2023-05-16T15:00:27.211Z,20.30
2023-05-16T15:02:54.233Z,19.90
2023-05-16T15:05:20.944Z,19.90
2023-05-16T15:07:47.666Z,19.50
2023-05-16T15:10:14.308Z,19.10
2023-05-16T15:12:41.108Z,18.90
2023-05-16T15:15:11.925Z,18.60
2023-05-16T15:20:08.920Z,18.00
2023-05-16T15:22:38.739Z,18.00
2023-05-16T15:25:05.815Z,17.80
2023-05-16T15:29:59.937Z,17.20
2023-05-16T15:32:26.850Z,17.10
2023-05-16T15:39:47.773Z,17.00
2023-05-16T15:42:14.842Z,16.70
2023-05-16T15:44:41.549Z,16.80
2023-05-16T15:47:09.288Z,16.80
2023-05-16T15:49:36.113Z,16.80
2023-05-16T15:52:02.743Z,16.60
2023-05-16T15:54:30.959Z,16.80
2023-05-16T15:56:57.670Z,16.70
2023-05-16T15:59:24.387Z,16.50
2023-05-16T16:01:53.005Z,16.30
2023-05-16T16:04:23.255Z,16.30
2023-05-16T16:06:50.483Z,16.20
2023-05-16T16:09:17.552Z,16.20
2023-05-16T16:11:44.222Z,16.10
2023-05-16T16:14:13.058Z,16.10
2023-05-16T16:16:40.637Z,16.20
2023-05-16T16:19:08.096Z,16.30
2023-05-16T16:21:35.073Z,16.40
2023-05-16T16:24:01.855Z,16.40
2023-05-16T16:26:28.598Z,16.30
2023-05-16T16:28:55.277Z,16.30
2023-05-16T16:31:24.547Z,16.00
2023-05-16T16:33:51.197Z,16.00
2023-05-16T16:36:18.116Z,15.90
2023-05-16T16:38:44.738Z,15.90
2023-05-16T16:41:11.562Z,15.70
2023-05-16T16:43:41.277Z,15.60
2023-05-16T16:46:08.335Z,15.50
2023-05-16T16:48:36.448Z,15.40
2023-05-16T16:51:03.217Z,15.40
2023-05-16T16:53:29.826Z,15.40
2023-05-16T16:55:56.614Z,15.40
2023-05-16T16:58:23.403Z,15.20
2023-05-16T17:00:50.090Z,15.20
2023-05-16T17:03:17.059Z,15.10
2023-05-16T17:05:44.988Z,15.10
2023-05-16T17:08:12.150Z,15.00
2023-05-16T17:10:39.295Z,14.90
2023-05-16T17:13:10.136Z,14.80
2023-05-16T17:15:37.664Z,14.70
2023-05-16T17:18:07.231Z,14.70
2023-05-16T17:20:34.424Z,14.60
2023-05-16T17:23:01.584Z,14.70
2023-05-16T17:27:55.992Z,14.70
2023-05-16T17:30:22.849Z,14.60
2023-05-16T17:52:34.643Z,14.50
2023-05-16T17:55:01.245Z,14.50
2023-05-16T18:14:39.220Z,14.50
2023-05-16T18:17:06.407Z,14.40
2023-05-16T18:19:35.608Z,14.40
2023-05-16T18:31:58.397Z,14.30
2023-05-16T18:44:17.232Z,14.10
2023-05-16T18:46:45.337Z,14.10
2023-05-16T19:08:49.732Z,14.30
2023-05-16T19:11:17.370Z,14.30
2023-05-16T19:16:11.134Z,13.80
2023-05-16T19:18:38.102Z,13.70
2023-05-16T19:21:04.958Z,13.70
2023-05-16T19:23:31.797Z,13.70
2023-05-16T19:30:52.571Z,15.60
2023-05-16T19:35:46.513Z,16.30
2023-05-16T19:40:40.244Z,16.30
2023-05-16T19:43:06.878Z,16.60
2023-05-16T19:55:22.348Z,16.80
2023-05-16T20:07:41.330Z,16.80
2023-05-16T20:10:09.309Z,16.80
2023-05-16T20:12:36.250Z,16.70
2023-05-16T20:15:04.988Z,16.70
2023-05-16T20:17:31.857Z,16.70
2023-05-16T20:19:58.544Z,16.70
2023-05-16T20:22:25.391Z,16.60
2023-05-16T20:24:52.249Z,16.60
2023-05-16T20:27:19.176Z,15.50
2023-05-16T20:29:45.991Z,15.20
2023-05-16T20:32:12.619Z,14.40
2023-05-16T20:34:41.666Z,13.90
2023-05-16T20:37:08.416Z,13.60
2023-05-16T20:39:35.043Z,13.30
2023-05-16T20:42:01.744Z,13.00
2023-05-16T20:44:33.631Z,12.70
2023-05-16T20:49:27.252Z,12.60
2023-05-16T20:51:54.249Z,12.50
2023-05-16T20:54:20.961Z,12.30
2023-05-16T20:59:14.729Z,12.20
2023-05-16T21:06:35.446Z,11.80
2023-05-16T21:13:59.754Z,11.70
2023-05-16T21:16:27.348Z,11.70
2023-05-16T21:18:54.168Z,11.60
2023-05-16T21:21:21.266Z,11.50
2023-05-16T21:23:47.936Z,11.60
2023-05-16T21:36:19.052Z,11.30
2023-05-16T21:38:45.718Z,11.20
2023-05-16T22:30:18.697Z,10.70
2023-05-16T22:32:46.785Z,10.60
2023-05-16T22:35:13.846Z,10.50
2023-05-16T22:37:40.533Z,10.40
2023-05-16T22:40:08.030Z,10.30
2023-05-16T22:42:34.676Z,10.30
2023-05-16T22:45:01.310Z,10.30
2023-05-16T22:47:28.815Z,10.30
2023-05-16T22:49:55.582Z,10.20
2023-05-16T22:52:22.206Z,10.20
2023-05-16T22:54:48.803Z,13.20
2023-05-16T22:57:15.548Z,10.10
2023-05-16T22:59:42.153Z,10.10
2023-05-16T23:02:08.743Z,10.10
2023-05-16T23:04:35.403Z,10.00
2023-05-16T23:07:02.003Z,10.00
2023-05-16T23:09:29.123Z,10.00
2023-05-16T23:11:55.697Z,9.90
2023-05-16T23:14:22.290Z,9.90
2023-05-16T23:16:48.881Z,10.00
2023-05-16T23:19:15.575Z,9.90
2023-05-16T23:21:42.761Z,9.90
2023-05-16T23:24:09.378Z,9.90
2023-05-16T23:29:06.104Z,9.70
2023-05-16T23:31:32.823Z,9.70
2023-05-16T23:33:59.548Z,9.70
2023-05-16T23:36:26.314Z,9.60
2023-05-16T23:38:52.932Z,9.60
2023-05-16T23:41:19.598Z,9.60
2023-05-16T23:43:46.208Z,9.60
2023-05-16T23:46:12.762Z,9.50
2023-05-16T23:48:39.929Z,9.40
2023-05-16T23:51:07.662Z,9.40
2023-05-16T23:53:37.198Z,9.40
2023-05-16T23:56:03.926Z,9.30
2023-05-16T23:58:30.556Z,9.20
